Wards Island, New York
Current Conditions -  °F | °C
As of 6:07 PM on Wednesday 22 Oct 2014 (Local Time) from KNYC Reporting Station
Moderate Rain Moderate Rain  
Wind Chill: 52°   Ceiling: 1300
Heat Index: 52°   Visibility: 3mi
Dew Point: 49°   Wind: 9mph
Humidity: 89%   Direction: 360°N
Pressure: 29.85"   Gusts: 21mph
Location:  40.8022°N, 73.9368°W
Report Text: KNYC 222207Z AUTO 36008G18KT 310V040 3SM RA BR BKN013 OVC021 11/09 A2985 RMK AO2 P0005 T01110094 $
Loading
Personal Weather Stations






























Interactive Weather Map
Tropical Storm Tracking
New forecast layout! Learn more

10-Day Weather Forecast

Advertisements
Track Severe Weather on mobile